Time;durP1;ratioP1;P1;durP2;ratioP2;P2;SDS_P1;SDS_P2;PMS_P1;PMS_P2;Temp;Humidity;BMP_temperature;BMP_pressure;BME280_temperature;BME280_humidity;BME280_pressure;Samples;Min_cycle;Max_cycle;Signal;HPM_P1;HPM_P2
2023/09/21 00:00:59;;;;;;;9.90;5.43;;;14.10;99.90;;;;;;5034328;28;20114;-84
2023/09/21 00:03:27;;;;;;;18.65;6.38;;;14.00;99.90;;;;;;5021405;28;20040;-84
2023/09/21 00:05:54;;;;;;;10.50;6.10;;;14.10;99.90;;;;;;5031277;28;20034;-84
2023/09/21 00:08:20;;;;;;;7.70;5.47;;;14.00;99.90;;;;;;5030336;28;20037;-84
2023/09/21 00:10:46;;;;;;;10.68;5.35;;;14.00;99.90;;;;;;5022557;28;20037;-84
2023/09/21 00:13:12;;;;;;;12.93;5.18;;;14.00;99.90;;;;;;5030236;28;20079;-84
2023/09/21 00:15:40;;;;;;;8.32;4.63;;;13.90;99.90;;;;;;5020678;28;20048;-84
2023/09/21 00:18:06;;;;;;;10.43;5.20;;;13.90;99.90;;;;;;5026903;28;20124;-84
2023/09/21 00:20:55;;;;;;;10.05;4.68;;;13.80;99.90;;;;;;5046245;28;20430;-84
2023/09/21 00:23:21;;;;;;;5.72;4.35;;;13.70;99.90;;;;;;5020927;28;20124;-84
2023/09/21 00:25:47;;;;;;;7.20;4.32;;;13.70;99.90;;;;;;5040347;28;20029;-85
2023/09/21 00:28:14;;;;;;;8.15;4.75;;;13.60;99.90;;;;;;5012398;28;20021;-84
2023/09/21 00:30:41;;;;;;;10.38;4.53;;;13.50;99.90;;;;;;5033062;28;20123;-84
2023/09/21 00:33:07;;;;;;;8.80;4.35;;;13.50;99.90;;;;;;5036078;28;20072;-84
2023/09/21 00:35:40;;;;;;;8.55;4.28;;;13.40;99.90;;;;;;5029397;28;20043;-84
2023/09/21 00:38:09;;;;;;;7.97;4.50;;;13.40;99.90;;;;;;5026369;28;20445;-84
2023/09/21 00:40:39;;;;;;;8.82;5.03;;;13.40;99.90;;;;;;5036321;28;20085;-84
2023/09/21 00:43:10;;;;;;;6.57;4.57;;;13.40;99.90;;;;;;5026524;28;20060;-85
2023/09/21 00:45:50;;;;;;;9.93;4.30;;;13.30;99.90;;;;;;5030513;28;20117;-84
2023/09/21 00:48:21;;;;;;;6.43;4.38;;;13.20;99.90;;;;;;5033794;28;20082;-84
2023/09/21 00:50:48;;;;;;;7.93;4.38;;;13.10;99.90;;;;;;5032270;28;20028;-84
2023/09/21 00:53:15;;;;;;;9.48;4.47;;;13.10;99.90;;;;;;5028592;28;20860;-84
2023/09/21 00:55:50;;;;;;;11.38;4.97;;;13.10;99.90;;;;;;5032929;28;20024;-85
2023/09/21 00:58:17;;;;;;;9.00;4.05;;;13.20;99.90;;;;;;5017898;28;20038;-84
2023/09/21 01:00:44;;;;;;;10.35;5.00;;;13.00;99.90;;;;;;5025382;28;20507;-84
2023/09/21 01:03:12;;;;;;;7.70;4.40;;;13.00;99.90;;;;;;5020890;28;20038;-83
2023/09/21 01:05:54;;;;;;;7.05;4.50;;;12.90;99.90;;;;;;5039865;28;20052;-84
2023/09/21 01:08:28;;;;;;;;;;;12.80;99.90;;;;;;5038326;28;20444;-84
2023/09/21 01:10:55;;;;;;;6.78;5.00;;;12.70;99.90;;;;;;5033803;28;19958;-84
2023/09/21 01:13:23;;;;;;;10.65;5.57;;;12.60;99.90;;;;;;5030585;28;20464;-84
2023/09/21 01:15:59;;;;;;;8.10;5.32;;;12.70;99.90;;;;;;5032026;28;20028;-84
2023/09/21 01:18:25;;;;;;;7.70;4.95;;;12.60;99.90;;;;;;5019087;28;20029;-84
2023/09/21 01:20:55;;;;;;;8.70;5.72;;;12.60;99.90;;;;;;5032022;28;20349;-84
2023/09/21 01:23:33;;;;;;;9.05;5.28;;;12.60;99.90;;;;;;5020796;28;20037;-84
2023/09/21 01:26:00;;;;;;;9.10;5.03;;;12.50;99.90;;;;;;5040569;28;20040;-84
2023/09/21 01:28:29;;;;;;;11.02;6.07;;;12.40;99.90;;;;;;5054358;28;20029;-84
2023/09/21 01:30:56;;;;;;;8.18;5.25;;;12.40;99.90;;;;;;5010875;28;20024;-84
2023/09/21 01:33:23;;;;;;;10.65;6.07;;;12.40;99.90;;;;;;5031478;28;20040;-84
2023/09/21 01:35:49;;;;;;;9.65;5.65;;;12.30;99.90;;;;;;5036129;28;20677;-84
2023/09/21 01:38:15;;;;;;;8.13;5.50;;;12.30;99.90;;;;;;5031653;28;20471;-84
2023/09/21 01:40:42;;;;;;;9.80;5.22;;;12.40;99.90;;;;;;5036976;28;20021;-84
2023/09/21 01:43:14;;;;;;;10.75;5.47;;;12.40;99.90;;;;;;5023859;28;20034;-84
2023/09/21 01:45:42;;;;;;;12.40;5.72;;;12.40;99.90;;;;;;5019811;28;20021;-84
2023/09/21 01:48:09;;;;;;;11.00;5.93;;;12.40;99.90;;;;;;5017511;28;20389;-84
2023/09/21 01:50:57;;;;;;;8.85;6.20;;;12.30;99.90;;;;;;5020471;28;20087;-84
2023/09/21 01:53:26;;;;;;;12.13;6.50;;;12.30;99.90;;;;;;5031203;28;20041;-84
2023/09/21 01:55:52;;;;;;;12.73;6.13;;;12.30;99.90;;;;;;5025770;28;20037;-84
2023/09/21 01:58:23;;;;;;;9.90;6.05;;;12.40;99.90;;;;;;5019938;28;20035;-84
2023/09/21 02:00:49;;;;;;;10.13;6.25;;;12.60;99.90;;;;;;5027244;28;20654;-84
2023/09/21 02:03:22;;;;;;;15.32;6.95;;;12.70;99.90;;;;;;5032677;28;20120;-84
2023/09/21 02:05:48;;;;;;;8.70;6.35;;;12.80;99.90;;;;;;5020432;28;20033;-84
2023/09/21 02:08:19;;;;;;;12.57;6.90;;;12.90;99.90;;;;;;5033907;28;20017;-84
2023/09/21 02:10:49;;;;;;;13.05;6.95;;;13.10;99.90;;;;;;5017667;28;20034;-84
2023/09/21 02:13:16;;;;;;;12.43;7.22;;;13.20;99.90;;;;;;5033864;28;20065;-84
2023/09/21 02:15:43;;;;;;;12.02;5.60;;;13.30;99.90;;;;;;5009010;28;20484;-84
2023/09/21 02:18:10;;;;;;;8.75;4.95;;;13.50;99.90;;;;;;5034951;28;20033;-84
2023/09/21 02:20:41;;;;;;;7.60;4.93;;;13.60;99.90;;;;;;5036733;28;20031;-84
2023/09/21 02:23:07;;;;;;;;;;;13.80;99.90;;;;;;5037325;28;20032;-84
2023/09/21 02:25:35;;;;;;;8.63;4.05;;;13.90;99.90;;;;;;5044409;28;19913;-84
2023/09/21 02:28:08;;;;;;;9.75;4.18;;;13.90;99.90;;;;;;5037493;28;20166;-84
2023/09/21 02:30:36;;;;;;;6.68;4.10;;;13.90;99.90;;;;;;5040547;28;20037;-84
2023/09/21 02:33:04;;;;;;;6.60;3.97;;;13.90;99.90;;;;;;5034262;28;20491;-84
2023/09/21 02:35:34;;;;;;;8.80;4.38;;;13.90;99.90;;;;;;5031141;28;20144;-84
2023/09/21 02:38:01;;;;;;;5.32;3.70;;;13.80;99.90;;;;;;5023435;28;20498;-84
2023/09/21 02:40:27;;;;;;;6.00;4.03;;;13.80;99.90;;;;;;5031377;28;20025;-85
2023/09/21 02:42:54;;;;;;;7.15;4.18;;;13.70;99.90;;;;;;5019054;28;20040;-84
2023/09/21 02:45:24;;;;;;;7.03;4.35;;;13.70;99.90;;;;;;5039597;28;20025;-85
2023/09/21 02:47:52;;;;;;;6.35;4.00;;;13.70;99.90;;;;;;5027143;28;20029;-84
2023/09/21 02:50:22;;;;;;;6.50;4.45;;;13.70;99.90;;;;;;5021528;28;20116;-84
2023/09/21 02:52:52;;;;;;;6.40;4.85;;;13.60;99.90;;;;;;5020677;28;20026;-84
2023/09/21 02:55:20;;;;;;;7.53;3.95;;;13.70;99.90;;;;;;5030321;28;20034;-85
2023/09/21 02:57:49;;;;;;;7.10;4.30;;;13.70;99.90;;;;;;5032668;28;20086;-85
2023/09/21 03:00:34;;;;;;;6.13;3.92;;;13.70;99.90;;;;;;5035524;28;20021;-85
2023/09/21 03:03:04;;;;;;;6.60;4.53;;;13.70;99.90;;;;;;5024270;28;20471;-85
2023/09/21 03:05:33;;;;;;;5.80;4.00;;;13.80;99.90;;;;;;5015982;28;20053;-84
2023/09/21 03:08:05;;;;;;;10.77;4.38;;;13.80;99.90;;;;;;5033090;28;20033;-84
2023/09/21 03:10:31;;;;;;;6.88;4.38;;;13.80;99.90;;;;;;5035666;28;20025;-84
2023/09/21 03:12:58;;;;;;;7.85;3.97;;;13.80;99.90;;;;;;5026306;28;20032;-84
2023/09/21 03:15:24;;;;;;;6.18;3.90;;;13.80;99.90;;;;;;5028929;28;20035;-84
2023/09/21 03:17:54;;;;;;;6.10;4.28;;;13.90;99.90;;;;;;5028308;28;20472;-84
2023/09/21 03:20:46;;;;;;;6.53;4.07;;;13.90;99.90;;;;;;5027284;28;20106;-84
2023/09/21 03:23:13;;;;;;;5.25;3.63;;;13.80;99.90;;;;;;5028188;28;20040;-84
2023/09/21 03:25:41;;;;;;;5.85;3.88;;;13.80;99.90;;;;;;5034888;28;20020;-84
2023/09/21 03:28:13;;;;;;;5.45;3.53;;;13.90;99.90;;;;;;5034384;28;20393;-84
2023/09/21 03:30:39;;;;;;;;;;;13.90;99.90;;;;;;5035697;28;20480;-85
2023/09/21 03:33:06;;;;;;;6.30;4.05;;;13.90;99.90;;;;;;5021041;28;19913;-84
2023/09/21 03:35:32;;;;;;;12.02;3.90;;;13.90;99.90;;;;;;5050912;28;20071;-84
2023/09/21 03:37:58;;;;;;;5.78;3.13;;;14.00;99.90;;;;;;5035226;28;20036;-84
2023/09/21 03:40:30;;;;;;;7.40;3.55;;;14.00;99.90;;;;;;5031940;28;20025;-84
2023/09/21 03:42:59;;;;;;;7.53;3.35;;;14.10;99.90;;;;;;5015525;28;20021;-84
2023/09/21 03:45:26;;;;;;;4.88;3.70;;;14.10;99.90;;;;;;5018808;28;20029;-84
2023/09/21 03:47:55;;;;;;;5.85;3.90;;;14.10;99.90;;;;;;5031592;28;20051;-84
2023/09/21 03:50:27;;;;;;;5.13;3.25;;;14.20;99.90;;;;;;5028398;28;20029;-84
2023/09/21 03:52:53;;;;;;;4.80;3.03;;;14.20;99.90;;;;;;5042615;28;20968;-84
2023/09/21 03:55:20;;;;;;;7.45;3.88;;;14.30;99.90;;;;;;5027437;28;20138;-85
2023/09/21 03:57:46;;;;;;;5.07;3.40;;;14.30;99.90;;;;;;5034525;28;20487;-85
2023/09/21 04:00:36;;;;;;;5.07;3.40;;;14.30;99.90;;;;;;5022041;28;20037;-84
2023/09/21 04:03:10;;;;;;;9.93;3.83;;;14.30;99.90;;;;;;5020905;28;20590;-84
2023/09/21 04:05:48;;;;;;;10.55;4.50;;;14.30;99.90;;;;;;5030347;28;20427;-84
2023/09/21 04:08:14;;;;;;;11.35;3.92;;;14.40;99.90;;;;;;5007555;28;20030;-84
2023/09/21 04:10:40;;;;;;;6.75;4.30;;;14.50;99.90;;;;;;5035972;28;20116;-84
2023/09/21 04:13:06;;;;;;;8.93;4.72;;;14.60;99.90;;;;;;5030750;28;20484;-84
2023/09/21 04:15:32;;;;;;;8.27;5.15;;;14.70;99.90;;;;;;5011441;28;20031;-84
2023/09/21 04:17:59;;;;;;;8.35;5.10;;;14.70;99.90;;;;;;5014921;28;20357;-84
2023/09/21 04:20:25;;;;;;;7.60;4.93;;;14.70;99.90;;;;;;5013625;28;20034;-85
2023/09/21 04:22:52;;;;;;;8.23;5.40;;;14.60;99.90;;;;;;5015687;28;20077;-84
2023/09/21 04:25:18;;;;;;;10.35;4.65;;;14.50;99.90;;;;;;5023240;28;20032;-84
2023/09/21 04:27:48;;;;;;;8.00;4.60;;;14.50;99.90;;;;;;5019152;28;20025;-84
2023/09/21 04:30:17;;;;;;;6.13;4.55;;;14.40;99.90;;;;;;5010467;28;20827;-84
2023/09/21 04:32:46;;;;;;;5.60;4.18;;;14.40;99.90;;;;;;5032907;28;20037;-84
2023/09/21 04:35:14;;;;;;;6.13;4.70;;;14.30;99.90;;;;;;5029012;28;20416;-83
2023/09/21 04:37:42;;;;;;;10.55;4.57;;;14.20;99.90;;;;;;5007200;28;20073;-85
2023/09/21 04:40:10;;;;;;;7.05;5.38;;;14.30;99.90;;;;;;5029908;28;20030;-85
2023/09/21 04:42:45;;;;;;;9.40;5.15;;;14.30;99.90;;;;;;5045321;28;20384;-84
2023/09/21 04:45:13;;;;;;;12.20;5.80;;;14.30;99.90;;;;;;5029674;28;20022;-85
2023/09/21 04:47:42;;;;;;;10.20;6.10;;;14.40;99.90;;;;;;5021418;28;20072;-84
2023/09/21 04:50:12;;;;;;;8.80;5.38;;;14.40;99.90;;;;;;5028583;28;20029;-84
2023/09/21 04:52:39;;;;;;;7.82;5.15;;;14.40;99.90;;;;;;5011797;28;20701;-84
2023/09/21 04:55:09;;;;;;;9.63;4.63;;;14.40;99.90;;;;;;5032833;28;20710;-84
2023/09/21 04:57:37;;;;;;;6.13;4.22;;;14.50;99.90;;;;;;5011179;28;20049;-84
2023/09/21 05:00:10;;;;;;;6.00;4.72;;;14.60;99.90;;;;;;5008350;28;20040;-84
2023/09/21 05:02:36;;;;;;;6.35;4.13;;;14.60;99.90;;;;;;5025840;28;20038;-84
2023/09/21 05:05:03;;;;;;;6.45;4.47;;;14.60;99.90;;;;;;5021410;28;20387;-84
2023/09/21 05:07:28;;;;;;;11.07;4.70;;;14.70;99.90;;;;;;5025719;28;20119;-84
2023/09/21 05:09:54;;;;;;;8.98;5.53;;;14.60;99.90;;;;;;5010345;28;20063;-84
2023/09/21 05:12:20;;;;;;;8.65;4.72;;;14.60;99.90;;;;;;5015149;28;20051;-85
2023/09/21 05:14:48;;;;;;;9.02;5.35;;;14.60;99.90;;;;;;5017630;28;20495;-84
2023/09/21 05:17:14;;;;;;;9.02;5.40;;;14.60;99.90;;;;;;5004061;28;20090;-85
2023/09/21 05:19:41;;;;;;;9.60;5.68;;;14.60;99.90;;;;;;5035533;28;20167;-85
2023/09/21 05:22:09;;;;;;;8.38;5.05;;;14.70;99.90;;;;;;5023363;28;20045;-84
2023/09/21 05:24:36;;;;;;;8.35;5.93;;;14.60;99.90;;;;;;5046407;28;20033;-84
2023/09/21 05:27:02;;;;;;;7.32;5.55;;;14.60;99.90;;;;;;5019679;28;20503;-85
2023/09/21 05:29:28;;;;;;;7.65;5.55;;;14.60;99.90;;;;;;5024033;28;20040;-85
2023/09/21 05:31:54;;;;;;;9.20;5.20;;;14.50;99.90;;;;;;5022822;28;20473;-84
2023/09/21 05:34:20;;;;;;;13.77;5.38;;;14.60;99.90;;;;;;5038294;28;20045;-84
2023/09/21 05:36:47;;;;;;;8.32;5.68;;;14.60;99.90;;;;;;5016598;28;20430;-84
2023/09/21 05:39:17;;;;;;;10.85;5.18;;;14.60;99.90;;;;;;5032228;28;20043;-84
2023/09/21 05:41:43;;;;;;;7.40;5.07;;;14.50;99.90;;;;;;5036246;28;20055;-84
2023/09/21 05:44:09;;;;;;;7.25;5.35;;;14.50;99.90;;;;;;5049118;28;20120;-84
2023/09/21 05:46:35;;;;;;;7.60;4.97;;;14.50;99.90;;;;;;5013238;28;20116;-84
2023/09/21 05:49:03;;;;;;;14.05;5.68;;;14.50;99.90;;;;;;5019372;28;20021;-84
2023/09/21 05:51:29;;;;;;;13.77;5.80;;;14.60;99.90;;;;;;5029739;28;20060;-84
2023/09/21 05:53:55;;;;;;;9.15;4.65;;;14.60;99.90;;;;;;5033528;28;20033;-84
2023/09/21 05:56:21;;;;;;;15.57;5.22;;;14.70;99.90;;;;;;5006744;28;20043;-84
2023/09/21 05:58:46;;;;;;;13.73;4.80;;;14.80;99.90;;;;;;5016684;28;20459;-83
2023/09/21 06:01:13;;;;;;;7.10;5.15;;;14.80;99.90;;;;;;5029652;28;20406;-84
2023/09/21 06:03:39;;;;;;;7.68;4.78;;;14.90;99.90;;;;;;5035022;28;20350;-84
2023/09/21 06:06:38;;;;;;;9.07;4.90;;;14.90;99.90;;;;;;5029865;28;20059;-85
2023/09/21 06:09:51;;;;;;;9.00;4.63;;;15.10;99.90;;;;;;5011558;28;20795;-84
2023/09/21 06:12:16;;;;;;;6.28;4.38;;;15.20;99.90;;;;;;5028830;28;20041;-84
2023/09/21 06:14:42;;;;;;;6.25;4.53;;;15.30;99.90;;;;;;5047042;28;20451;-84
2023/09/21 06:17:12;;;;;;;6.93;4.28;;;15.40;99.90;;;;;;5033588;28;20026;-84
2023/09/21 06:19:39;;;;;;;8.60;4.07;;;15.50;99.90;;;;;;5021628;28;20030;-85
2023/09/21 06:22:05;;;;;;;6.00;3.95;;;15.50;99.90;;;;;;5037040;28;20037;-85
2023/09/21 06:24:31;;;;;;;5.53;3.95;;;15.60;99.90;;;;;;5008760;28;20029;-84
2023/09/21 06:26:57;;;;;;;6.38;4.40;;;15.60;99.90;;;;;;5037855;28;20531;-85
2023/09/21 06:29:23;;;;;;;8.50;4.15;;;15.70;99.90;;;;;;5032062;28;20361;-85
2023/09/21 06:31:55;;;;;;;8.00;3.60;;;15.70;99.90;;;;;;5021749;28;20087;-85
2023/09/21 06:34:24;;;;;;;5.55;4.03;;;15.70;99.90;;;;;;5044237;28;20027;-85
2023/09/21 06:36:52;;;;;;;5.75;4.03;;;15.70;99.90;;;;;;5039571;28;20029;-85
2023/09/21 06:39:20;;;;;;;6.70;4.13;;;15.70;99.90;;;;;;5021015;28;20021;-85
2023/09/21 06:41:47;;;;;;;7.70;3.92;;;15.60;99.90;;;;;;5036760;28;20498;-85
2023/09/21 06:44:14;;;;;;;6.97;3.70;;;15.60;99.90;;;;;;5022617;28;20033;-85
2023/09/21 06:46:41;;;;;;;5.18;3.42;;;15.70;99.90;;;;;;5023927;28;20033;-85
2023/09/21 06:49:06;;;;;;;8.57;3.97;;;15.70;99.90;;;;;;5048988;28;20502;-85
2023/09/21 06:51:32;;;;;;;5.82;4.03;;;15.70;99.90;;;;;;5035724;28;20156;-85
2023/09/21 06:54:00;;;;;;;9.75;4.03;;;15.70;99.90;;;;;;5007235;28;20024;-84
2023/09/21 06:56:29;;;;;;;8.43;4.65;;;15.70;99.90;;;;;;5035414;28;20380;-85
2023/09/21 06:58:56;;;;;;;7.97;4.57;;;15.70;99.90;;;;;;5030899;28;20043;-84
2023/09/21 07:01:22;;;;;;;9.15;3.63;;;15.60;99.90;;;;;;5035882;28;20495;-84
2023/09/21 07:03:48;;;;;;;13.85;4.65;;;15.40;99.90;;;;;;5036187;28;20395;-84
2023/09/21 07:06:19;;;;;;;11.82;5.55;;;15.30;99.90;;;;;;5044206;28;20053;-84
2023/09/21 07:08:46;;;;;;;9.27;5.10;;;15.20;99.90;;;;;;5052410;28;20379;-84
2023/09/21 07:11:13;;;;;;;8.73;5.43;;;15.10;99.90;;;;;;5035372;28;20033;-84
2023/09/21 07:13:39;;;;;;;7.50;5.18;;;15.00;99.90;;;;;;5027852;28;20039;-84
2023/09/21 07:16:05;;;;;;;9.63;5.32;;;15.00;99.90;;;;;;5044711;28;20128;-84
2023/09/21 07:18:31;;;;;;;8.55;5.32;;;15.00;99.90;;;;;;5022122;28;21428;-84
2023/09/21 07:20:56;;;;;;;16.23;6.50;;;15.00;99.90;;;;;;5030261;28;20032;-84
2023/09/21 07:23:22;;;;;;;7.05;4.90;;;15.10;99.90;;;;;;5034177;28;20504;-84
2023/09/21 07:25:49;;;;;;;7.13;4.82;;;15.10;99.90;;;;;;5018111;28;20014;-84
2023/09/21 07:28:14;;;;;;;11.43;5.85;;;15.20;99.90;;;;;;5026357;28;20389;-84
2023/09/21 07:31:13;;;;;;;7.30;4.70;;;15.30;99.90;;;;;;5020198;28;20043;-84
2023/09/21 07:33:39;;;;;;;9.85;5.32;;;15.40;99.90;;;;;;5035691;28;20828;-84
2023/09/21 07:36:04;;;;;;;11.15;6.07;;;15.60;99.90;;;;;;5006262;28;20105;-84
2023/09/21 07:38:30;;;;;;;9.35;5.43;;;15.80;99.90;;;;;;5044529;28;20060;-84
2023/09/21 07:40:56;;;;;;;9.82;5.05;;;16.10;99.90;;;;;;5021459;28;20037;-84
2023/09/21 07:43:22;;;;;;;7.10;4.55;;;16.50;99.90;;;;;;5032960;28;20079;-84
2023/09/21 07:45:49;;;;;;;10.65;4.72;;;16.90;99.90;;;;;;5034816;28;20057;-84
2023/09/21 07:48:16;;;;;;;5.93;3.80;;;17.30;99.90;;;;;;5035198;28;20082;-84
2023/09/21 07:50:42;;;;;;;12.35;4.45;;;17.80;99.90;;;;;;5034869;28;20111;-84
2023/09/21 07:53:08;;;;;;;12.45;3.85;;;18.40;99.90;;;;;;5025811;28;20116;-85
2023/09/21 07:55:34;;;;;;;10.25;3.45;;;18.90;99.90;;;;;;5003010;28;20029;-84
2023/09/21 07:58:00;;;;;;;6.68;3.55;;;19.30;99.90;;;;;;5022419;28;20037;-85
2023/09/21 08:00:26;;;;;;;8.20;3.45;;;19.70;99.90;;;;;;5030828;28;20059;-84
2023/09/21 08:02:53;;;;;;;9.18;3.17;;;20.20;99.90;;;;;;5027773;28;20476;-85
2023/09/21 08:05:19;;;;;;;4.85;2.83;;;20.50;99.90;;;;;;5031565;28;20038;-85
2023/09/21 08:07:45;;;;;;;6.68;2.70;;;20.80;99.90;;;;;;5006208;28;20524;-84
2023/09/21 08:10:11;;;;;;;4.50;2.72;;;21.10;99.90;;;;;;5030641;28;20392;-85
2023/09/21 08:12:38;;;;;;;3.42;2.30;;;21.20;99.90;;;;;;5027562;28;20041;-84
2023/09/21 08:15:06;;;;;;;6.18;2.47;;;21.20;99.90;;;;;;5006243;28;20120;-84
2023/09/21 08:17:32;;;;;;;4.13;2.55;;;21.10;99.90;;;;;;5044393;28;20056;-84
2023/09/21 08:19:58;;;;;;;5.43;2.95;;;20.70;99.90;;;;;;5034654;28;20174;-84
2023/09/21 08:22:30;;;;;;;9.27;3.08;;;20.30;99.90;;;;;;5035191;28;20111;-85
2023/09/21 08:24:56;;;;;;;4.88;2.65;;;20.00;99.90;;;;;;5006854;28;20091;-84
2023/09/21 08:27:28;;;;;;;5.00;2.97;;;19.60;99.90;;;;;;5037004;28;20104;-84
2023/09/21 08:29:55;;;;;;;7.50;2.92;;;19.70;99.90;;;;;;5034433;28;20670;-84
2023/09/21 08:32:21;;;;;;;4.30;3.08;;;19.70;99.90;;;;;;5010463;28;20044;-84
2023/09/21 08:34:48;;;;;;;7.25;2.95;;;19.70;99.90;;;;;;5026526;28;20032;-84
2023/09/21 08:37:13;;;;;;;4.95;3.03;;;19.90;99.90;;;;;;5027882;28;20033;-84
2023/09/21 08:39:39;;;;;;;4.18;2.78;;;20.10;99.90;;;;;;5031697;28;20030;-84
2023/09/21 08:42:05;;;;;;;4.20;2.85;;;20.40;99.90;;;;;;5029221;28;20037;-84
2023/09/21 08:44:31;;;;;;;4.38;3.22;;;20.80;99.90;;;;;;5032398;28;20124;-85
2023/09/21 08:46:58;;;;;;;6.22;2.80;;;21.20;99.90;;;;;;5028380;28;20036;-85
2023/09/21 08:49:26;;;;;;;6.10;2.90;;;21.50;99.90;;;;;;5024490;28;20677;-85
2023/09/21 08:51:53;;;;;;;6.88;2.70;;;21.90;99.90;;;;;;5028941;28;20064;-84
2023/09/21 08:54:23;;;;;;;5.25;3.10;;;21.80;99.90;;;;;;5034157;28;20032;-84
2023/09/21 08:56:55;;;;;;;6.13;2.70;;;21.30;99.90;;;;;;5034286;28;20380;-85
2023/09/21 08:59:20;;;;;;;4.38;2.70;;;21.20;99.90;;;;;;5030740;28;20037;-85
2023/09/21 09:01:47;;;;;;;6.57;3.45;;;21.60;99.90;;;;;;5030683;28;20037;-84
2023/09/21 09:04:36;;;;;;;3.45;2.90;;;21.50;99.90;;;;;;5034270;28;20055;-84
2023/09/21 09:07:02;;;;;;;4.18;2.63;;;21.60;99.90;;;;;;5022946;28;20025;-85
2023/09/21 09:09:28;;;;;;;5.78;3.20;;;21.70;99.90;;;;;;5018912;28;20029;-85
2023/09/21 09:11:54;;;;;;;7.65;3.15;;;21.60;99.90;;;;;;5023967;28;20495;-85
2023/09/21 09:14:19;;;;;;;4.35;2.35;;;22.20;99.90;;;;;;5036582;28;20551;-85
2023/09/21 09:16:46;;;;;;;4.25;2.70;;;22.70;99.90;;;;;;5030677;28;20112;-84
2023/09/21 09:19:13;;;;;;;6.20;2.72;;;22.30;99.90;;;;;;5030912;28;20485;-85
2023/09/21 09:21:40;;;;;;;5.72;3.28;;;22.00;99.90;;;;;;5030214;28;20040;-84
2023/09/21 09:24:08;;;;;;;4.88;2.65;;;21.40;99.90;;;;;;5027949;28;20025;-84
2023/09/21 09:26:41;;;;;;;4.32;2.83;;;20.90;99.90;;;;;;5021455;28;20033;-84
2023/09/21 09:29:15;;;;;;;5.50;3.60;;;20.80;99.90;;;;;;5028857;28;20037;-84
2023/09/21 09:31:41;;;;;;;4.65;3.50;;;20.60;99.90;;;;;;5031493;28;20029;-85
2023/09/21 09:34:16;;;;;;;5.68;3.58;;;20.30;99.90;;;;;;5017669;28;20061;-85
2023/09/21 09:36:45;;;;;;;7.80;3.70;;;20.30;99.90;;;;;;5031348;28;20036;-84
2023/09/21 09:39:14;;;;;;;4.88;3.65;;;20.30;99.90;;;;;;5031484;28;20033;-85
2023/09/21 09:41:41;;;;;;;3.67;3.08;;;20.30;99.90;;;;;;5043273;28;20033;-85
2023/09/21 09:44:08;;;;;;;4.18;2.92;;;20.30;99.90;;;;;;5040811;28;20735;-84
2023/09/21 09:46:39;;;;;;;5.55;3.10;;;20.30;99.90;;;;;;5018751;28;20034;-86
2023/09/21 09:49:06;;;;;;;7.05;3.13;;;20.30;99.90;;;;;;5013644;28;20041;-85
2023/09/21 09:51:40;;;;;;;8.40;3.13;;;20.40;99.90;;;;;;5034602;28;20127;-85
2023/09/21 09:54:32;;;;;;;7.20;2.95;;;20.70;99.90;;;;;;5034006;28;20037;-85
2023/09/21 09:56:59;;;;;;;7.15;2.90;;;21.10;99.90;;;;;;5005923;28;20030;-85
2023/09/21 09:59:28;;;;;;;6.18;2.88;;;21.50;99.90;;;;;;5013395;28;20389;-85
2023/09/21 10:01:55;;;;;;;4.07;2.67;;;21.80;99.90;;;;;;5018915;28;20029;-85
2023/09/21 10:04:52;;;;;;;4.00;2.30;;;21.90;99.90;;;;;;5037447;28;20044;-85
2023/09/21 10:07:17;;;;;;;5.25;2.83;;;22.00;99.90;;;;;;5031667;28;20029;-85
2023/09/21 10:09:45;;;;;;;4.45;2.90;;;22.00;99.90;;;;;;5010731;28;20037;-85
2023/09/21 10:12:12;;;;;;;7.95;2.85;;;22.00;99.90;;;;;;5037340;28;20033;-85
2023/09/21 10:14:43;;;;;;;5.28;2.80;;;22.20;99.90;;;;;;5040918;28;20037;-85
2023/09/21 10:17:14;;;;;;;6.78;3.22;;;22.20;99.90;;;;;;5030651;28;20868;-85
2023/09/21 10:19:43;;;;;;;3.63;3.03;;;22.10;99.90;;;;;;5011553;28;20116;-85
2023/09/21 10:22:26;;;;;;;11.43;3.30;;;22.20;99.90;;;;;;5030737;28;20502;-85
2023/09/21 10:24:55;;;;;;;7.05;3.25;;;22.40;99.90;;;;;;5038782;28;20095;-85
2023/09/21 10:27:24;;;;;;;5.53;2.90;;;22.50;99.90;;;;;;5031548;28;20061;-85
2023/09/21 10:30:09;;;;;;;5.35;3.03;;;22.40;99.90;;;;;;5033664;28;20128;-85
2023/09/21 10:32:47;;;;;;;9.18;3.42;;;22.40;99.90;;;;;;5030606;28;20457;-85
2023/09/21 10:35:21;;;;;;;7.32;3.08;;;22.40;99.90;;;;;;5030558;28;20531;-86
2023/09/21 10:37:51;;;;;;;6.05;3.05;;;22.50;99.90;;;;;;5049910;28;20021;-85
2023/09/21 10:40:25;;;;;;;4.80;3.05;;;23.10;99.90;;;;;;5041005;28;20033;-86
2023/09/21 10:42:51;;;;;;;4.97;3.17;;;23.60;99.90;;;;;;5033987;28;20116;-85
2023/09/21 10:45:16;;;;;;;7.63;2.67;;;23.70;99.90;;;;;;5030847;28;20065;-85
2023/09/21 10:47:50;;;;;;;4.93;2.30;;;24.00;99.90;;;;;;5024310;28;20039;-85
2023/09/21 10:50:20;;;;;;;3.20;2.20;;;24.10;99.90;;;;;;5031642;28;20033;-85
2023/09/21 10:52:51;;;;;;;4.78;2.50;;;24.40;99.90;;;;;;5034497;28;20166;-85
2023/09/21 10:55:18;;;;;;;5.20;2.40;;;25.00;99.90;;;;;;5019839;28;20044;-85
2023/09/21 10:57:46;;;;;;;6.13;2.53;;;25.40;99.90;;;;;;5031153;28;20538;-85
2023/09/21 11:00:17;;;;;;;5.93;2.72;;;25.50;99.90;;;;;;5013804;28;20034;-85
2023/09/21 11:02:49;;;;;;;3.90;2.78;;;25.00;99.90;;;;;;5036149;28;20036;-85
2023/09/21 11:05:16;;;;;;;3.70;2.58;;;24.50;99.90;;;;;;5032475;28;20029;-86
2023/09/21 11:07:45;;;;;;;5.45;2.80;;;24.50;99.90;;;;;;5015060;28;20033;-86
2023/09/21 11:10:11;;;;;;;9.77;2.85;;;24.30;99.90;;;;;;5039644;28;20033;-85
2023/09/21 11:12:40;;;;;;;6.75;2.30;;;24.60;99.90;;;;;;5020180;28;20780;-86
2023/09/21 11:15:09;;;;;;;4.40;1.98;;;24.40;99.90;;;;;;5035574;28;20029;-85
2023/09/21 11:17:34;;;;;;;4.18;2.42;;;24.30;99.90;;;;;;5047021;28;20033;-85
2023/09/21 11:20:02;;;;;;;5.35;2.30;;;24.50;99.90;;;;;;5035424;28;20023;-85
2023/09/21 11:22:29;;;;;;;5.75;2.33;;;24.30;99.90;;;;;;5035713;28;20029;-85
2023/09/21 11:24:56;;;;;;;2.83;2.20;;;24.30;99.90;;;;;;5038239;28;20857;-85
2023/09/21 11:27:26;;;;;;;3.60;1.95;;;24.30;99.90;;;;;;5041355;28;20733;-85
2023/09/21 11:29:52;;;;;;;4.95;2.72;;;24.30;99.90;;;;;;5033601;28;20654;-85
2023/09/21 11:32:19;;;;;;;4.88;2.67;;;24.00;99.90;;;;;;5033795;28;20033;-85
2023/09/21 11:34:45;;;;;;;6.53;2.38;;;23.70;99.90;;;;;;5024202;28;20033;-86
2023/09/21 11:37:12;;;;;;;6.53;3.17;;;23.60;99.90;;;;;;5029928;28;20055;-85
2023/09/21 11:39:40;;;;;;;4.22;2.80;;;23.40;99.90;;;;;;5026141;28;20064;-85
2023/09/21 11:42:10;;;;;;;7.55;2.88;;;23.20;99.90;;;;;;5038191;28;20033;-85
2023/09/21 11:44:37;;;;;;;4.20;2.72;;;22.90;99.90;;;;;;5019901;28;20057;-85
2023/09/21 11:47:07;;;;;;;5.22;3.22;;;22.80;99.90;;;;;;5022170;28;20029;-85
2023/09/21 11:49:38;;;;;;;3.17;2.10;;;22.80;99.90;;;;;;5019139;28;20170;-86
2023/09/21 11:52:04;;;;;;;4.57;2.97;;;22.90;99.90;;;;;;5032429;28;20055;-86
2023/09/21 11:54:34;;;;;;;6.43;2.95;;;23.10;99.90;;;;;;5046191;28;20108;-86
2023/09/21 11:57:00;;;;;;;4.22;2.55;;;23.10;99.90;;;;;;5031307;28;20029;-85
2023/09/21 11:59:26;;;;;;;4.55;2.65;;;23.20;99.90;;;;;;5035993;28;20036;-85
2023/09/21 12:01:55;;;;;;;4.07;2.63;;;23.40;99.90;;;;;;5029839;28;20021;-86
2023/09/21 12:04:22;;;;;;;6.85;2.78;;;23.60;99.90;;;;;;5028869;28;20032;-85
2023/09/21 12:06:50;;;;;;;6.65;2.63;;;23.60;99.90;;;;;;5019895;28;20026;-85
2023/09/21 12:09:18;;;;;;;2.35;2.05;;;23.40;99.90;;;;;;5012228;28;20060;-85
2023/09/21 12:11:46;;;;;;;3.78;2.88;;;23.40;99.90;;;;;;5028911;28;20120;-85
2023/09/21 12:14:12;;;;;;;10.10;2.83;;;23.30;99.90;;;;;;5040566;28;20738;-85
2023/09/21 12:17:01;;;;;;;7.40;2.90;;;23.40;99.90;;;;;;5030367;28;20065;-85
2023/09/21 12:19:27;;;;;;;4.28;2.63;;;23.70;99.90;;;;;;5017822;28;20033;-86
2023/09/21 12:21:56;;;;;;;4.40;2.35;;;24.20;99.90;;;;;;5023036;28;20024;-85
2023/09/21 12:24:21;;;;;;;6.70;2.47;;;24.30;99.90;;;;;;5030059;28;20039;-85
2023/09/21 12:26:47;;;;;;;4.00;2.50;;;24.10;99.90;;;;;;5016899;28;20388;-85
2023/09/21 12:29:17;;;;;;;3.78;2.33;;;24.30;99.90;;;;;;5030381;28;20856;-85
2023/09/21 12:31:44;;;;;;;5.88;3.00;;;24.00;99.90;;;;;;5015146;28;20124;-85
2023/09/21 12:34:14;;;;;;;5.57;2.30;;;24.00;99.90;;;;;;5025508;28;20608;-86
2023/09/21 12:36:42;;;;;;;9.02;2.58;;;23.90;99.90;;;;;;5034216;28;20086;-85
2023/09/21 12:39:10;;;;;;;3.35;2.30;;;24.00;99.90;;;;;;5018112;28;20029;-86
2023/09/21 12:41:39;;;;;;;3.30;2.13;;;24.20;99.90;;;;;;5043154;28;20396;-86
2023/09/21 12:44:06;;;;;;;5.50;2.25;;;24.40;99.90;;;;;;5040173;28;20025;-85
2023/09/21 12:46:32;;;;;;;4.65;2.80;;;24.50;99.90;;;;;;5033394;28;20036;-85
2023/09/21 12:48:58;;;;;;;5.82;2.65;;;24.30;99.90;;;;;;5048392;28;20033;-86
2023/09/21 12:51:24;;;;;;;4.95;2.30;;;24.30;99.90;;;;;;5011899;28;20527;-86
2023/09/21 12:53:50;;;;;;;6.07;2.63;;;24.50;99.90;;;;;;5042625;28;20133;-85